createdAt,value
2017-09-12T00:02:14.355Z,2.90
2017-09-12T00:07:16.409Z,3.00
2017-09-12T00:12:18.431Z,2.50
2017-09-12T00:17:20.871Z,2.70
2017-09-12T00:22:22.884Z,2.50
2017-09-12T00:27:24.892Z,2.50
2017-09-12T00:32:27.116Z,2.60
2017-09-12T00:37:30.094Z,2.27
2017-09-12T00:42:32.182Z,1.93
2017-09-12T00:47:34.210Z,2.70
2017-09-12T00:52:36.290Z,2.40
2017-09-12T00:57:39.275Z,2.10
2017-09-12T01:02:43.178Z,2.20
2017-09-12T01:07:47.713Z,2.50
2017-09-12T01:12:53.212Z,2.40
2017-09-12T01:18:01.289Z,2.27
2017-09-12T01:23:07.774Z,2.33
2017-09-12T01:28:10.726Z,2.10
2017-09-12T01:33:12.881Z,2.67
2017-09-12T01:38:14.953Z,2.57
2017-09-12T01:43:17.014Z,2.20
2017-09-12T01:48:19.094Z,2.60
2017-09-12T01:53:21.830Z,2.40
2017-09-12T01:58:23.852Z,2.17
2017-09-12T02:03:25.891Z,2.53
2017-09-12T02:08:28.636Z,2.57
2017-09-12T02:13:30.667Z,2.30
2017-09-12T02:18:33.351Z,2.70
2017-09-12T02:23:35.755Z,2.90
2017-09-12T02:28:37.967Z,3.03
2017-09-12T02:33:41.400Z,1.90
2017-09-12T02:38:43.348Z,2.83
2017-09-12T02:43:45.391Z,2.77
2017-09-12T02:48:47.369Z,2.63
2017-09-12T02:53:49.461Z,2.70
2017-09-12T02:58:52.396Z,2.90
2017-09-12T03:03:54.438Z,3.10
2017-09-12T03:08:56.484Z,3.43
2017-09-12T03:13:58.527Z,2.63
2017-09-12T03:19:00.512Z,2.50
2017-09-12T03:24:02.542Z,3.10
2017-09-12T03:29:04.699Z,2.60
2017-09-12T03:34:06.670Z,3.07
2017-09-12T03:39:10.701Z,2.30
2017-09-12T03:44:12.916Z,2.80
2017-09-12T03:49:15.819Z,2.57
2017-09-12T03:54:22.043Z,2.90
2017-09-12T03:59:28.819Z,3.07
2017-09-12T04:04:36.632Z,3.30
2017-09-12T04:09:43.944Z,2.87
2017-09-12T04:14:46.235Z,2.90
2017-09-12T04:19:48.325Z,4.00
2017-09-12T04:24:51.639Z,3.20
2017-09-12T04:29:53.733Z,3.50
2017-09-12T04:34:55.814Z,2.93
2017-09-12T04:39:58.573Z,3.60
2017-09-12T04:45:00.648Z,3.30
2017-09-12T04:50:02.764Z,3.30
2017-09-12T04:55:04.776Z,4.03
2017-09-12T05:00:06.884Z,4.00
2017-09-12T05:05:09.796Z,3.50
2017-09-12T05:10:11.823Z,3.60
2017-09-12T05:15:14.651Z,3.50
2017-09-12T05:20:17.536Z,3.90
2017-09-12T05:25:20.492Z,4.07
2017-09-12T05:30:22.560Z,2.93
2017-09-12T05:35:27.514Z,3.03
2017-09-12T05:40:29.619Z,3.40
2017-09-12T05:45:31.684Z,4.00
2017-09-12T05:50:34.382Z,3.00
2017-09-12T05:55:36.408Z,3.60
2017-09-12T06:00:39.164Z,3.20
2017-09-12T06:05:42.008Z,4.20
2017-09-12T06:10:44.254Z,3.30
2017-09-12T06:15:46.563Z,3.40
2017-09-12T06:20:49.380Z,3.20
2017-09-12T06:25:51.339Z,3.50
2017-09-12T06:30:53.300Z,3.80
2017-09-12T06:35:56.053Z,3.87
2017-09-12T06:40:58.103Z,4.03
2017-09-12T06:46:00.085Z,4.17
2017-09-12T06:51:02.477Z,5.40
2017-09-12T06:56:04.495Z,5.10
2017-09-12T07:01:06.492Z,5.93
2017-09-12T07:06:08.506Z,7.40
2017-09-12T07:11:10.516Z,7.00
2017-09-12T07:16:12.587Z,7.87
2017-09-12T07:21:14.737Z,7.97
2017-09-12T07:26:16.907Z,7.20
2017-09-12T07:31:19.055Z,7.50
2017-09-12T07:36:21.425Z,6.00
2017-09-12T07:41:23.559Z,6.43
2017-09-12T07:46:25.598Z,6.23
2017-09-12T07:51:27.576Z,6.10
2017-09-12T07:56:30.021Z,6.23
2017-09-12T08:01:32.412Z,5.63
2017-09-12T08:06:34.371Z,6.40
2017-09-12T08:11:37.801Z,6.33
2017-09-12T08:16:39.752Z,5.70
2017-09-12T08:21:41.732Z,6.27
2017-09-12T08:26:44.939Z,6.70
2017-09-12T08:31:47.193Z,5.80
2017-09-12T08:36:49.192Z,5.33
2017-09-12T08:41:51.665Z,5.70
2017-09-12T08:46:53.664Z,4.50
2017-09-12T08:51:56.420Z,4.30
2017-09-12T08:56:58.504Z,4.13
2017-09-12T09:02:02.445Z,3.70
2017-09-12T09:07:04.566Z,4.67
2017-09-12T09:12:06.623Z,3.83
2017-09-12T09:17:08.705Z,2.87
2017-09-12T09:22:10.809Z,3.20
2017-09-12T09:27:13.155Z,3.10
2017-09-12T09:32:15.263Z,3.50
2017-09-12T09:37:17.467Z,3.83
2017-09-12T09:42:19.750Z,3.43
2017-09-12T09:47:21.972Z,3.83
2017-09-12T09:52:24.939Z,3.57
2017-09-12T09:57:28.235Z,3.83
2017-09-12T10:02:30.175Z,3.33
2017-09-12T10:07:32.194Z,3.30
2017-09-12T10:12:35.144Z,3.03
2017-09-12T10:17:39.138Z,3.80
2017-09-12T10:22:41.394Z,3.10
2017-09-12T10:27:44.179Z,3.40
2017-09-12T10:32:46.543Z,4.20
2017-09-12T10:37:50.256Z,3.00
2017-09-12T10:42:53.129Z,3.90
2017-09-12T10:47:55.357Z,3.30
2017-09-12T10:52:58.568Z,3.30
2017-09-12T10:58:00.679Z,3.03
2017-09-12T11:03:02.756Z,3.60
2017-09-12T11:08:05.936Z,2.60
2017-09-12T11:13:08.180Z,3.10
2017-09-12T11:18:10.411Z,3.27
2017-09-12T11:23:12.416Z,3.67
2017-09-12T11:28:14.514Z,2.67
2017-09-12T11:33:16.550Z,2.83
2017-09-12T11:38:18.516Z,2.50
2017-09-12T11:43:20.522Z,2.90
2017-09-12T11:48:22.496Z,3.00
2017-09-12T11:53:24.582Z,2.57
2017-09-12T11:58:26.552Z,2.47
2017-09-12T12:03:28.870Z,2.23
2017-09-12T12:08:30.923Z,1.90
2017-09-12T12:13:33.400Z,1.83
2017-09-12T12:18:35.412Z,1.60
2017-09-12T12:23:38.247Z,2.07
2017-09-12T12:28:40.486Z,1.83
2017-09-12T12:33:42.452Z,2.87
2017-09-12T12:38:44.802Z,2.03
2017-09-12T12:43:46.942Z,2.07
2017-09-12T12:48:49.000Z,1.17
2017-09-12T12:53:51.103Z,1.10
2017-09-12T12:58:53.161Z,0.80
2017-09-12T13:03:55.495Z,1.10
2017-09-12T13:08:57.576Z,1.30
2017-09-12T13:14:00.045Z,1.47
2017-09-12T13:19:08.284Z,1.90
2017-09-12T13:24:16.223Z,2.67
2017-09-12T13:29:20.975Z,1.27
2017-09-12T13:34:23.585Z,1.30
2017-09-12T13:39:26.170Z,1.40
2017-09-12T13:44:28.429Z,1.73
2017-09-12T13:49:32.060Z,1.47
2017-09-12T13:54:34.924Z,0.97
2017-09-12T13:59:38.209Z,1.60
2017-09-12T14:04:40.586Z,0.90
2017-09-12T14:09:43.213Z,1.50
2017-09-12T14:14:49.198Z,1.53
2017-09-12T14:19:52.889Z,1.70
2017-09-12T14:24:55.280Z,1.80
2017-09-12T14:29:58.247Z,1.43
2017-09-12T14:35:00.641Z,1.80
2017-09-12T14:40:02.961Z,1.67
2017-09-12T14:45:06.030Z,2.13
2017-09-12T14:50:08.023Z,1.60
2017-09-12T14:55:10.337Z,1.93
2017-09-12T15:00:13.103Z,2.17
2017-09-12T15:05:15.281Z,1.77
2017-09-12T15:10:18.105Z,1.20
2017-09-12T15:15:27.200Z,1.20
2017-09-12T15:20:29.259Z,1.10
2017-09-12T15:25:31.236Z,0.87
2017-09-12T15:30:33.916Z,1.10
2017-09-12T15:35:36.101Z,1.10
2017-09-12T15:40:39.266Z,1.30
2017-09-12T15:45:42.284Z,1.00
2017-09-12T15:50:46.004Z,1.40
2017-09-12T15:55:50.459Z,1.30
2017-09-12T16:00:52.467Z,1.40
2017-09-12T16:05:54.804Z,1.27
2017-09-12T16:10:56.858Z,1.30
2017-09-12T16:15:59.486Z,1.50
2017-09-12T16:21:01.503Z,1.23
2017-09-12T16:26:04.223Z,1.57
2017-09-12T16:31:06.973Z,1.93
2017-09-12T16:36:09.036Z,1.90
2017-09-12T16:41:11.022Z,1.50
2017-09-12T16:46:13.748Z,1.60
2017-09-12T16:51:16.557Z,1.47
2017-09-12T16:56:22.301Z,2.43
2017-09-12T17:01:24.362Z,1.80
2017-09-12T17:06:26.437Z,3.57
2017-09-12T17:11:28.576Z,2.77
2017-09-12T17:16:30.596Z,2.40
2017-09-12T17:21:32.682Z,2.40
2017-09-12T17:26:34.827Z,1.93
2017-09-12T17:31:36.816Z,2.00
2017-09-12T17:36:38.932Z,2.23
2017-09-12T17:41:42.329Z,2.53
2017-09-12T17:46:44.559Z,3.10
2017-09-12T17:51:46.743Z,2.60
2017-09-12T17:56:48.857Z,3.47
2017-09-12T18:01:50.853Z,2.63
2017-09-12T18:06:53.002Z,1.80
2017-09-12T18:11:54.963Z,1.77
2017-09-12T18:16:57.855Z,2.13
2017-09-12T18:22:00.269Z,2.57
2017-09-12T18:27:02.656Z,2.57
2017-09-12T18:32:05.830Z,3.10
2017-09-12T18:37:08.532Z,3.13
2017-09-12T18:42:10.773Z,3.50
2017-09-12T18:47:12.778Z,4.00
2017-09-12T18:52:15.095Z,3.90
2017-09-12T18:57:17.319Z,3.80
2017-09-12T19:02:20.030Z,4.93
2017-09-12T19:07:22.039Z,5.00
2017-09-12T19:12:24.611Z,4.87
2017-09-12T19:17:26.619Z,5.60
2017-09-12T19:22:29.366Z,5.53
2017-09-12T19:27:31.370Z,4.87
2017-09-12T19:32:33.423Z,4.13
2017-09-12T19:37:35.374Z,3.67
2017-09-12T19:42:37.347Z,3.47
2017-09-12T19:47:39.693Z,4.40
2017-09-12T19:52:41.691Z,3.63
2017-09-12T19:57:43.759Z,3.77
2017-09-12T20:02:45.792Z,3.90
2017-09-12T20:07:48.594Z,4.10
2017-09-12T20:12:50.588Z,4.23
2017-09-12T20:17:52.557Z,4.70
2017-09-12T20:22:55.298Z,4.20
2017-09-12T20:27:57.284Z,4.63
2017-09-12T20:32:59.294Z,4.60
2017-09-12T20:38:01.445Z,4.73
2017-09-12T20:43:03.409Z,5.47
2017-09-12T20:48:06.532Z,5.37
2017-09-12T20:53:08.490Z,5.27
2017-09-12T20:58:10.464Z,5.00
2017-09-12T21:03:12.428Z,5.90
2017-09-12T21:08:14.445Z,5.53
2017-09-12T21:13:16.422Z,5.67
2017-09-12T21:18:18.444Z,5.50
2017-09-12T21:23:21.265Z,5.67
2017-09-12T21:28:23.259Z,6.10
2017-09-12T21:33:25.231Z,6.80
2017-09-12T21:38:27.948Z,6.90
2017-09-12T21:43:30.009Z,7.57
2017-09-12T21:48:32.760Z,7.03
2017-09-12T21:53:34.720Z,7.50
2017-09-12T21:58:36.725Z,7.53
2017-09-12T22:03:39.447Z,7.90
2017-09-12T22:08:41.443Z,8.30
2017-09-12T22:13:43.407Z,9.63
2017-09-12T22:18:45.425Z,10.77
2017-09-12T22:23:47.391Z,9.53
2017-09-12T22:28:49.519Z,8.93
2017-09-12T22:33:52.212Z,8.83
2017-09-12T22:38:54.168Z,9.27
2017-09-12T22:43:56.095Z,8.63
2017-09-12T22:48:58.094Z,8.50
2017-09-12T22:54:01.170Z,9.20
2017-09-12T22:59:03.141Z,8.80
2017-09-12T23:04:05.869Z,8.87
2017-09-12T23:09:07.843Z,6.60
2017-09-12T23:14:09.783Z,7.63
2017-09-12T23:19:11.893Z,6.67
2017-09-12T23:24:13.891Z,5.67
2017-09-12T23:29:15.897Z,6.37
2017-09-12T23:34:17.913Z,6.43
2017-09-12T23:39:19.924Z,5.60
2017-09-12T23:44:28.885Z,6.33
2017-09-12T23:49:30.852Z,5.80
2017-09-12T23:54:36.177Z,6.10
2017-09-12T23:59:38.130Z,6.00
